sensor_id;sensor_type;location;lat;lon;timestamp;temperature;humidity
65396;HTU21D;52004;45.136;39.010;2022-10-16T00:01:23;11.28;56.03
65396;HTU21D;52004;45.136;39.010;2022-10-16T00:03:49;11.28;56.04
65396;HTU21D;52004;45.136;39.010;2022-10-16T00:06:16;11.29;56.05
65396;HTU21D;52004;45.136;39.010;2022-10-16T00:08:42;11.29;56.04
65396;HTU21D;52004;45.136;39.010;2022-10-16T00:11:10;11.29;56.08
65396;HTU21D;52004;45.136;39.010;2022-10-16T00:13:36;11.31;56.09
65396;HTU21D;52004;45.136;39.010;2022-10-16T00:16:03;11.30;56.12
65396;HTU21D;52004;45.136;39.010;2022-10-16T00:18:29;11.31;56.14
65396;HTU21D;52004;45.136;39.010;2022-10-16T00:20:55;11.31;56.17
65396;HTU21D;52004;45.136;39.010;2022-10-16T00:23:40;11.32;56.19
65396;HTU21D;52004;45.136;39.010;2022-10-16T00:26:07;11.31;56.19
65396;HTU21D;52004;45.136;39.010;2022-10-16T00:28:34;11.30;56.20
65396;HTU21D;52004;45.136;39.010;2022-10-16T00:31:03;11.31;56.20
65396;HTU21D;52004;45.136;39.010;2022-10-16T00:33:29;11.30;56.22
65396;HTU21D;52004;45.136;39.010;2022-10-16T00:35:57;11.32;56.24
65396;HTU21D;52004;45.136;39.010;2022-10-16T00:38:23;11.32;56.26
65396;HTU21D;52004;45.136;39.010;2022-10-16T00:40:49;11.31;56.29
65396;HTU21D;52004;45.136;39.010;2022-10-16T00:46:03;11.30;56.31
65396;HTU21D;52004;45.136;39.010;2022-10-16T00:48:29;11.29;56.32
65396;HTU21D;52004;45.136;39.010;2022-10-16T00:50:56;11.27;56.34
65396;HTU21D;52004;45.136;39.010;2022-10-16T00:53:23;11.24;56.34
65396;HTU21D;52004;45.136;39.010;2022-10-16T00:55:50;11.22;56.39
65396;HTU21D;52004;45.136;39.010;2022-10-16T00:58:16;11.19;56.41
65396;HTU21D;52004;45.136;39.010;2022-10-16T01:00:41;11.18;56.40
65396;HTU21D;52004;45.136;39.010;2022-10-16T01:06:36;11.12;56.42
65396;HTU21D;52004;45.136;39.010;2022-10-16T01:08:55;11.09;56.42
65396;HTU21D;52004;45.136;39.010;2022-10-16T01:11:34;11.03;56.45
65396;HTU21D;52004;45.136;39.010;2022-10-16T01:14:05;10.98;56.52
65396;HTU21D;52004;45.136;39.010;2022-10-16T01:16:37;10.98;56.55
65396;HTU21D;52004;45.136;39.010;2022-10-16T01:19:12;10.93;56.57
65396;HTU21D;52004;45.136;39.010;2022-10-16T01:21:40;10.89;56.61
65396;HTU21D;52004;45.136;39.010;2022-10-16T01:24:17;10.88;56.61
65396;HTU21D;52004;45.136;39.010;2022-10-16T01:29:36;10.81;56.66
65396;HTU21D;52004;45.136;39.010;2022-10-16T01:32:10;10.78;56.68
65396;HTU21D;52004;45.136;39.010;2022-10-16T01:34:38;10.77;56.66
65396;HTU21D;52004;45.136;39.010;2022-10-16T01:37:09;10.75;56.66
65396;HTU21D;52004;45.136;39.010;2022-10-16T01:39:36;10.72;56.69
65396;HTU21D;52004;45.136;39.010;2022-10-16T01:42:08;10.69;56.71
65396;HTU21D;52004;45.136;39.010;2022-10-16T01:44:35;10.69;56.72
65396;HTU21D;52004;45.136;39.010;2022-10-16T01:47:02;10.64;56.77
65396;HTU21D;52004;45.136;39.010;2022-10-16T01:49:29;10.62;56.81
65396;HTU21D;52004;45.136;39.010;2022-10-16T01:51:58;10.62;56.83
65396;HTU21D;52004;45.136;39.010;2022-10-16T01:54:25;10.60;56.85
65396;HTU21D;52004;45.136;39.010;2022-10-16T01:56:53;10.57;56.86
65396;HTU21D;52004;45.136;39.010;2022-10-16T01:59:20;10.55;56.89
65396;HTU21D;52004;45.136;39.010;2022-10-16T02:01:56;10.53;56.94
65396;HTU21D;52004;45.136;39.010;2022-10-16T02:04:29;10.53;56.97
65396;HTU21D;52004;45.136;39.010;2022-10-16T02:06:56;10.50;56.97
65396;HTU21D;52004;45.136;39.010;2022-10-16T02:09:22;10.49;57.03
65396;HTU21D;52004;45.136;39.010;2022-10-16T02:11:48;10.49;57.00
65396;HTU21D;52004;45.136;39.010;2022-10-16T02:14:15;10.48;57.03
65396;HTU21D;52004;45.136;39.010;2022-10-16T02:16:42;10.45;57.07
65396;HTU21D;52004;45.136;39.010;2022-10-16T02:19:11;10.45;57.09
65396;HTU21D;52004;45.136;39.010;2022-10-16T02:21:43;10.43;57.09
65396;HTU21D;52004;45.136;39.010;2022-10-16T02:29:07;10.41;57.20
65396;HTU21D;52004;45.136;39.010;2022-10-16T02:31:35;10.42;57.22
65396;HTU21D;52004;45.136;39.010;2022-10-16T02:34:01;10.43;57.23
65396;HTU21D;52004;45.136;39.010;2022-10-16T02:36:28;10.44;57.22
65396;HTU21D;52004;45.136;39.010;2022-10-16T02:38:55;10.43;57.25
65396;HTU21D;52004;45.136;39.010;2022-10-16T02:41:21;10.43;57.24
65396;HTU21D;52004;45.136;39.010;2022-10-16T02:43:47;10.42;57.25
65396;HTU21D;52004;45.136;39.010;2022-10-16T02:46:14;10.40;57.24
65396;HTU21D;52004;45.136;39.010;2022-10-16T02:48:40;10.40;57.26
65396;HTU21D;52004;45.136;39.010;2022-10-16T02:51:06;10.38;57.29
65396;HTU21D;52004;45.136;39.010;2022-10-16T02:53:32;10.37;57.32
65396;HTU21D;52004;45.136;39.010;2022-10-16T02:55:58;10.36;57.35
65396;HTU21D;52004;45.136;39.010;2022-10-16T02:58:24;10.35;57.34
65396;HTU21D;52004;45.136;39.010;2022-10-16T03:00:50;10.35;57.35
65396;HTU21D;52004;45.136;39.010;2022-10-16T03:03:16;10.33;57.39
65396;HTU21D;52004;45.136;39.010;2022-10-16T03:05:42;10.30;57.43
65396;HTU21D;52004;45.136;39.010;2022-10-16T03:08:08;10.28;57.45
65396;HTU21D;52004;45.136;39.010;2022-10-16T03:10:34;10.29;57.48
65396;HTU21D;52004;45.136;39.010;2022-10-16T03:13:00;10.27;57.51
65396;HTU21D;52004;45.136;39.010;2022-10-16T03:15:26;0.00;57.55
65396;HTU21D;52004;45.136;39.010;2022-10-16T03:17:53;10.24;57.58
65396;HTU21D;52004;45.136;39.010;2022-10-16T03:20:19;10.23;57.61
65396;HTU21D;52004;45.136;39.010;2022-10-16T03:22:45;10.23;57.62
65396;HTU21D;52004;45.136;39.010;2022-10-16T03:25:11;10.22;57.64
65396;HTU21D;52004;45.136;39.010;2022-10-16T03:27:37;10.21;57.67
65396;HTU21D;52004;45.136;39.010;2022-10-16T03:30:03;10.20;57.71
65396;HTU21D;52004;45.136;39.010;2022-10-16T03:32:29;10.20;57.69
65396;HTU21D;52004;45.136;39.010;2022-10-16T03:34:55;10.20;57.74
65396;HTU21D;52004;45.136;39.010;2022-10-16T03:37:22;10.21;57.74
65396;HTU21D;52004;45.136;39.010;2022-10-16T03:39:48;10.22;57.77
65396;HTU21D;52004;45.136;39.010;2022-10-16T03:42:14;10.21;57.80
65396;HTU21D;52004;45.136;39.010;2022-10-16T03:44:40;10.20;57.84
65396;HTU21D;52004;45.136;39.010;2022-10-16T03:47:06;10.20;57.87
65396;HTU21D;52004;45.136;39.010;2022-10-16T03:49:32;10.21;57.88
65396;HTU21D;52004;45.136;39.010;2022-10-16T03:51:58;10.21;57.89
65396;HTU21D;52004;45.136;39.010;2022-10-16T03:54:24;10.21;57.93
65396;HTU21D;52004;45.136;39.010;2022-10-16T03:56:50;10.21;58.00
65396;HTU21D;52004;45.136;39.010;2022-10-16T03:59:16;10.22;57.98
65396;HTU21D;52004;45.136;39.010;2022-10-16T04:01:42;10.25;57.99
65396;HTU21D;52004;45.136;39.010;2022-10-16T04:04:08;10.26;58.05
65396;HTU21D;52004;45.136;39.010;2022-10-16T04:06:34;10.27;58.11
65396;HTU21D;52004;45.136;39.010;2022-10-16T04:08:59;10.31;58.13
65396;HTU21D;52004;45.136;39.010;2022-10-16T04:11:25;10.34;58.11
65396;HTU21D;52004;45.136;39.010;2022-10-16T04:13:51;10.37;58.13
65396;HTU21D;52004;45.136;39.010;2022-10-16T04:16:17;10.40;58.13
65396;HTU21D;52004;45.136;39.010;2022-10-16T04:18:43;10.43;58.17
65396;HTU21D;52004;45.136;39.010;2022-10-16T04:21:09;10.46;58.19
65396;HTU21D;52004;45.136;39.010;2022-10-16T04:23:35;10.52;58.27
65396;HTU21D;52004;45.136;39.010;2022-10-16T04:26:01;10.62;58.50
65396;HTU21D;52004;45.136;39.010;2022-10-16T04:28:27;10.77;58.72
65396;HTU21D;52004;45.136;39.010;2022-10-16T04:30:53;10.92;58.74
65396;HTU21D;52004;45.136;39.010;2022-10-16T04:33:18;11.11;58.64
65396;HTU21D;52004;45.136;39.010;2022-10-16T04:35:44;11.40;58.58
65396;HTU21D;52004;45.136;39.010;2022-10-16T04:38:10;11.74;58.48
65396;HTU21D;52004;45.136;39.010;2022-10-16T04:40:36;11.99;58.13
65396;HTU21D;52004;45.136;39.010;2022-10-16T04:43:03;12.13;57.80
65396;HTU21D;52004;45.136;39.010;2022-10-16T04:45:29;12.17;57.58
65396;HTU21D;52004;45.136;39.010;2022-10-16T04:47:58;12.16;57.62
65396;HTU21D;52004;45.136;39.010;2022-10-16T04:50:25;12.18;57.74
65396;HTU21D;52004;45.136;39.010;2022-10-16T04:53:04;12.23;57.90
65396;HTU21D;52004;45.136;39.010;2022-10-16T04:55:29;0.00;57.98
65396;HTU21D;52004;45.136;39.010;2022-10-16T04:57:55;12.50;58.09
65396;HTU21D;52004;45.136;39.010;2022-10-16T05:00:21;12.76;58.18
65396;HTU21D;52004;45.136;39.010;2022-10-16T05:02:49;12.97;58.05
65396;HTU21D;52004;45.136;39.010;2022-10-16T05:05:15;13.14;57.98
65396;HTU21D;52004;45.136;39.010;2022-10-16T05:07:41;13.30;57.94
65396;HTU21D;52004;45.136;39.010;2022-10-16T05:10:07;13.40;57.87
65396;HTU21D;52004;45.136;39.010;2022-10-16T05:12:33;13.50;57.80
65396;HTU21D;52004;45.136;39.010;2022-10-16T05:14:59;13.60;57.77
65396;HTU21D;52004;45.136;39.010;2022-10-16T05:17:25;13.71;57.86
65396;HTU21D;52004;45.136;39.010;2022-10-16T05:19:51;13.85;57.89
65396;HTU21D;52004;45.136;39.010;2022-10-16T05:22:17;14.01;58.03
65396;HTU21D;52004;45.136;39.010;2022-10-16T05:24:43;14.23;58.18
65396;HTU21D;52004;45.136;39.010;2022-10-16T05:27:09;14.49;58.29
65396;HTU21D;52004;45.136;39.010;2022-10-16T05:29:37;14.74;58.27
65396;HTU21D;52004;45.136;39.010;2022-10-16T05:32:03;14.96;58.11
65396;HTU21D;52004;45.136;39.010;2022-10-16T05:34:29;15.14;58.08
65396;HTU21D;52004;45.136;39.010;2022-10-16T05:36:55;15.31;58.03
65396;HTU21D;52004;45.136;39.010;2022-10-16T05:39:21;15.48;58.00
65396;HTU21D;52004;45.136;39.010;2022-10-16T05:41:49;15.63;57.97
65396;HTU21D;52004;45.136;39.010;2022-10-16T05:44:15;15.73;57.82
65396;HTU21D;52004;45.136;39.010;2022-10-16T05:46:41;0.00;57.87
65396;HTU21D;52004;45.136;39.010;2022-10-16T05:49:06;15.97;57.86
65396;HTU21D;52004;45.136;39.010;2022-10-16T05:51:32;16.15;58.00
65396;HTU21D;52004;45.136;39.010;2022-10-16T05:53:58;16.37;58.11
65396;HTU21D;52004;45.136;39.010;2022-10-16T05:56:24;16.64;58.28
65396;HTU21D;52004;45.136;39.010;2022-10-16T05:58:50;16.93;58.36
65396;HTU21D;52004;45.136;39.010;2022-10-16T06:01:17;17.25;58.17
65396;HTU21D;52004;45.136;39.010;2022-10-16T06:03:43;17.50;58.00
65396;HTU21D;52004;45.136;39.010;2022-10-16T06:08:35;17.93;57.87
65396;HTU21D;52004;45.136;39.010;2022-10-16T06:11:04;18.14;57.61
65396;HTU21D;52004;45.136;39.010;2022-10-16T06:13:31;18.26;57.59
65396;HTU21D;52004;45.136;39.010;2022-10-16T06:15:58;18.40;57.45
65396;HTU21D;52004;45.136;39.010;2022-10-16T06:18:24;0.00;57.29
65396;HTU21D;52004;45.136;39.010;2022-10-16T06:20:51;18.66;57.45
65396;HTU21D;52004;45.136;39.010;2022-10-16T06:23:17;18.81;57.38
65396;HTU21D;52004;45.136;39.010;2022-10-16T06:25:42;18.97;57.32
65396;HTU21D;52004;45.136;39.010;2022-10-16T06:28:08;19.11;57.29
65396;HTU21D;52004;45.136;39.010;2022-10-16T06:30:34;19.27;57.08
65396;HTU21D;52004;45.136;39.010;2022-10-16T06:33:00;19.39;56.90
65396;HTU21D;52004;45.136;39.010;2022-10-16T06:35:26;19.47;56.88
65396;HTU21D;52004;45.136;39.010;2022-10-16T06:38:17;19.55;56.81
65396;HTU21D;52004;45.136;39.010;2022-10-16T06:40:43;19.59;56.71
65396;HTU21D;52004;45.136;39.010;2022-10-16T06:43:09;19.66;56.58
65396;HTU21D;52004;45.136;39.010;2022-10-16T06:45:35;19.74;56.78
65396;HTU21D;52004;45.136;39.010;2022-10-16T06:48:01;19.94;56.90
65396;HTU21D;52004;45.136;39.010;2022-10-16T06:50:26;20.12;56.80
65396;HTU21D;52004;45.136;39.010;2022-10-16T06:52:52;20.24;56.52
65396;HTU21D;52004;45.136;39.010;2022-10-16T06:55:18;20.33;56.45
65396;HTU21D;52004;45.136;39.010;2022-10-16T06:57:46;20.42;56.37
65396;HTU21D;52004;45.136;39.010;2022-10-16T07:00:12;0.00;56.32
65396;HTU21D;52004;45.136;39.010;2022-10-16T07:02:38;20.63;56.28
65396;HTU21D;52004;45.136;39.010;2022-10-16T07:05:05;20.75;56.36
65396;HTU21D;52004;45.136;39.010;2022-10-16T07:07:31;20.89;56.34
65396;HTU21D;52004;45.136;39.010;2022-10-16T07:09:57;21.02;56.17
65396;HTU21D;52004;45.136;39.010;2022-10-16T07:12:22;21.13;56.11
65396;HTU21D;52004;45.136;39.010;2022-10-16T07:14:48;21.20;56.03
65396;HTU21D;52004;45.136;39.010;2022-10-16T07:17:16;21.29;55.97
65396;HTU21D;52004;45.136;39.010;2022-10-16T07:19:42;21.33;55.84
65396;HTU21D;52004;45.136;39.010;2022-10-16T07:22:08;21.38;55.80
65396;HTU21D;52004;45.136;39.010;2022-10-16T07:24:34;21.45;55.79
65396;HTU21D;52004;45.136;39.010;2022-10-16T07:27:00;21.52;55.95
65396;HTU21D;52004;45.136;39.010;2022-10-16T07:29:26;21.53;55.67
65396;HTU21D;52004;45.136;39.010;2022-10-16T07:31:52;21.58;55.89
65396;HTU21D;52004;45.136;39.010;2022-10-16T07:34:18;21.72;55.90
65396;HTU21D;52004;45.136;39.010;2022-10-16T07:36:47;21.82;55.69
65396;HTU21D;52004;45.136;39.010;2022-10-16T07:39:13;21.94;55.65
65396;HTU21D;52004;45.136;39.010;2022-10-16T07:41:39;21.97;55.29
65396;HTU21D;52004;45.136;39.010;2022-10-16T07:44:05;21.93;55.16
65396;HTU21D;52004;45.136;39.010;2022-10-16T07:46:31;21.96;55.48
65396;HTU21D;52004;45.136;39.010;2022-10-16T07:48:59;22.05;55.45
65396;HTU21D;52004;45.136;39.010;2022-10-16T07:51:25;22.20;55.62
65396;HTU21D;52004;45.136;39.010;2022-10-16T07:53:51;22.34;55.37
65396;HTU21D;52004;45.136;39.010;2022-10-16T07:56:18;22.38;55.26
65396;HTU21D;52004;45.136;39.010;2022-10-16T07:58:44;22.42;55.33
65396;HTU21D;52004;45.136;39.010;2022-10-16T08:01:11;22.42;54.96
65396;HTU21D;52004;45.136;39.010;2022-10-16T08:03:41;22.35;55.06
65396;HTU21D;52004;45.136;39.010;2022-10-16T08:06:07;22.43;55.27
65396;HTU21D;52004;45.136;39.010;2022-10-16T08:08:34;22.50;55.32
65396;HTU21D;52004;45.136;39.010;2022-10-16T08:11:00;0.00;55.60
65396;HTU21D;52004;45.136;39.010;2022-10-16T08:13:29;22.79;55.32
65396;HTU21D;52004;45.136;39.010;2022-10-16T08:15:55;22.72;54.46
65396;HTU21D;52004;45.136;39.010;2022-10-16T08:18:22;22.55;54.86
65396;HTU21D;52004;45.136;39.010;2022-10-16T08:20:48;22.51;55.10
65396;HTU21D;52004;45.136;39.010;2022-10-16T08:23:20;0.00;54.81
65396;HTU21D;52004;45.136;39.010;2022-10-16T08:25:46;22.46;55.20
65396;HTU21D;52004;45.136;39.010;2022-10-16T08:28:11;0.00;54.88
65396;HTU21D;52004;45.136;39.010;2022-10-16T08:30:37;22.53;55.05
65396;HTU21D;52004;45.136;39.010;2022-10-16T08:33:04;22.58;54.97
65396;HTU21D;52004;45.136;39.010;2022-10-16T08:35:30;22.69;55.13
65396;HTU21D;52004;45.136;39.010;2022-10-16T08:37:56;22.81;55.16
65396;HTU21D;52004;45.136;39.010;2022-10-16T08:40:26;22.95;54.94
65396;HTU21D;52004;45.136;39.010;2022-10-16T08:42:59;22.94;54.48
65396;HTU21D;52004;45.136;39.010;2022-10-16T08:48:47;22.41;53.70
65396;HTU21D;52004;45.136;39.010;2022-10-16T08:51:18;22.17;54.28
65396;HTU21D;52004;45.136;39.010;2022-10-16T08:53:55;22.10;54.31
65396;HTU21D;52004;45.136;39.010;2022-10-16T08:56:22;0.00;54.30
65396;HTU21D;52004;45.136;39.010;2022-10-16T08:58:48;22.02;54.27
65396;HTU21D;52004;45.136;39.010;2022-10-16T09:01:15;22.05;54.59
65396;HTU21D;52004;45.136;39.010;2022-10-16T09:04:04;22.16;55.13
65396;HTU21D;52004;45.136;39.010;2022-10-16T09:14:47;22.69;55.07
65396;HTU21D;52004;45.136;39.010;2022-10-16T09:17:21;0.00;55.33
65396;HTU21D;52004;45.136;39.010;2022-10-16T09:19:51;23.21;55.19
65396;HTU21D;52004;45.136;39.010;2022-10-16T09:22:19;23.43;55.07
65396;HTU21D;52004;45.136;39.010;2022-10-16T09:24:47;23.55;54.65
65396;HTU21D;52004;45.136;39.010;2022-10-16T09:27:14;23.54;54.30
65396;HTU21D;52004;45.136;39.010;2022-10-16T09:29:40;23.58;54.83
65396;HTU21D;52004;45.136;39.010;2022-10-16T09:32:12;23.75;55.18
65396;HTU21D;52004;45.136;39.010;2022-10-16T09:34:42;24.04;55.48
65396;HTU21D;52004;45.136;39.010;2022-10-16T09:37:09;24.33;55.35
65396;HTU21D;52004;45.136;39.010;2022-10-16T09:39:48;24.58;55.24
65396;HTU21D;52004;45.136;39.010;2022-10-16T09:42:15;24.79;55.00
65396;HTU21D;52004;45.136;39.010;2022-10-16T09:44:42;24.83;54.84
65396;HTU21D;52004;45.136;39.010;2022-10-16T09:49:52;24.90;54.39
65396;HTU21D;52004;45.136;39.010;2022-10-16T09:52:19;24.80;54.04
65396;HTU21D;52004;45.136;39.010;2022-10-16T09:55:27;0.00;53.90
65396;HTU21D;52004;45.136;39.010;2022-10-16T09:57:34;0.00;53.46
65396;HTU21D;52004;45.136;39.010;2022-10-16T10:00:00;23.90;53.36
65396;HTU21D;52004;45.136;39.010;2022-10-16T10:02:33;23.50;53.54
65396;HTU21D;52004;45.136;39.010;2022-10-16T10:04:59;23.30;53.58
65396;HTU21D;52004;45.136;39.010;2022-10-16T10:07:27;0.00;53.51
65396;HTU21D;52004;45.136;39.010;2022-10-16T10:09:53;23.06;53.69
65396;HTU21D;52004;45.136;39.010;2022-10-16T10:12:30;23.08;54.27
65396;HTU21D;52004;45.136;39.010;2022-10-16T10:14:58;0.00;54.45
65396;HTU21D;52004;45.136;39.010;2022-10-16T10:17:29;23.27;54.10
65396;HTU21D;52004;45.136;39.010;2022-10-16T10:27:24;23.39;54.01
65396;HTU21D;52004;45.136;39.010;2022-10-16T10:29:59;23.41;53.69
65396;HTU21D;52004;45.136;39.010;2022-10-16T10:32:39;23.32;53.39
65396;HTU21D;52004;45.136;39.010;2022-10-16T10:35:29;23.21;53.26
65396;HTU21D;52004;45.136;39.010;2022-10-16T10:45:28;22.68;52.91
65396;HTU21D;52004;45.136;39.010;2022-10-16T10:48:20;22.66;53.11
65396;HTU21D;52004;45.136;39.010;2022-10-16T10:50:59;22.60;53.11
65396;HTU21D;52004;45.136;39.010;2022-10-16T11:01:10;22.63;52.90
65396;HTU21D;52004;45.136;39.010;2022-10-16T11:06:36;0.00;52.71
65396;HTU21D;52004;45.136;39.010;2022-10-16T11:12:11;22.14;52.63
65396;HTU21D;52004;45.136;39.010;2022-10-16T11:15:25;21.96;52.77
65396;HTU21D;52004;45.136;39.010;2022-10-16T11:17:35;21.83;52.82
65396;HTU21D;52004;45.136;39.010;2022-10-16T11:25:06;21.65;52.91
65396;HTU21D;52004;45.136;39.010;2022-10-16T11:27:43;21.59;52.88
65396;HTU21D;52004;45.136;39.010;2022-10-16T11:30:14;21.54;52.90
65396;HTU21D;52004;45.136;39.010;2022-10-16T11:32:50;21.50;52.86
65396;HTU21D;52004;45.136;39.010;2022-10-16T11:35:19;21.42;52.87
65396;HTU21D;52004;45.136;39.010;2022-10-16T11:37:48;21.28;52.97
65396;HTU21D;52004;45.136;39.010;2022-10-16T11:40:19;21.16;53.11
65396;HTU21D;52004;45.136;39.010;2022-10-16T11:42:48;0.00;53.20
65396;HTU21D;52004;45.136;39.010;2022-10-16T11:48:04;20.99;53.31
65396;HTU21D;52004;45.136;39.010;2022-10-16T11:53:13;20.91;53.36
65396;HTU21D;52004;45.136;39.010;2022-10-16T11:55:41;20.90;53.38
65396;HTU21D;52004;45.136;39.010;2022-10-16T12:00:55;20.90;53.30
65396;HTU21D;52004;45.136;39.010;2022-10-16T12:06:06;20.80;53.33
65396;HTU21D;52004;45.136;39.010;2022-10-16T12:08:38;20.74;53.33
65396;HTU21D;52004;45.136;39.010;2022-10-16T12:11:20;20.66;53.37
65396;HTU21D;52004;45.136;39.010;2022-10-16T12:13:48;20.55;53.44
65396;HTU21D;52004;45.136;39.010;2022-10-16T12:18:41;20.47;53.51
65396;HTU21D;52004;45.136;39.010;2022-10-16T12:21:07;20.41;53.55
65396;HTU21D;52004;45.136;39.010;2022-10-16T12:23:37;20.39;53.59
65396;HTU21D;52004;45.136;39.010;2022-10-16T12:26:04;20.33;53.61
65396;HTU21D;52004;45.136;39.010;2022-10-16T12:28:34;20.26;53.67
65396;HTU21D;52004;45.136;39.010;2022-10-16T12:31:01;20.24;53.72
65396;HTU21D;52004;45.136;39.010;2022-10-16T12:33:29;20.20;53.68
65396;HTU21D;52004;45.136;39.010;2022-10-16T12:35:56;20.18;53.72
65396;HTU21D;52004;45.136;39.010;2022-10-16T12:38:35;20.16;53.72
65396;HTU21D;52004;45.136;39.010;2022-10-16T12:41:03;20.13;53.69
65396;HTU21D;52004;45.136;39.010;2022-10-16T12:43:37;20.04;53.76
65396;HTU21D;52004;45.136;39.010;2022-10-16T12:46:05;19.99;53.81
65396;HTU21D;52004;45.136;39.010;2022-10-16T12:48:31;19.96;53.88
65396;HTU21D;52004;45.136;39.010;2022-10-16T12:50:57;19.88;53.87
65396;HTU21D;52004;45.136;39.010;2022-10-16T12:53:34;19.82;53.99
65396;HTU21D;52004;45.136;39.010;2022-10-16T12:56:16;19.76;54.04
65396;HTU21D;52004;45.136;39.010;2022-10-16T12:59:05;19.74;54.10
65396;HTU21D;52004;45.136;39.010;2022-10-16T13:01:42;19.71;54.13
65396;HTU21D;52004;45.136;39.010;2022-10-16T13:12:11;19.56;54.18
65396;HTU21D;52004;45.136;39.010;2022-10-16T13:22:36;19.29;54.33
65396;HTU21D;52004;45.136;39.010;2022-10-16T13:27:34;19.12;54.48
65396;HTU21D;52004;45.136;39.010;2022-10-16T13:30:08;19.07;54.53
65396;HTU21D;52004;45.136;39.010;2022-10-16T13:32:36;18.99;54.57
65396;HTU21D;52004;45.136;39.010;2022-10-16T13:35:02;18.95;54.59
65396;HTU21D;52004;45.136;39.010;2022-10-16T13:37:29;18.86;54.63
65396;HTU21D;52004;45.136;39.010;2022-10-16T13:40:02;18.81;54.66
65396;HTU21D;52004;45.136;39.010;2022-10-16T13:42:33;18.74;54.69
65396;HTU21D;52004;45.136;39.010;2022-10-16T13:44:59;18.70;54.70
65396;HTU21D;52004;45.136;39.010;2022-10-16T13:47:26;18.64;54.73
65396;HTU21D;52004;45.136;39.010;2022-10-16T13:50:25;18.57;54.78
65396;HTU21D;52004;45.136;39.010;2022-10-16T13:52:45;18.55;54.75
65396;HTU21D;52004;45.136;39.010;2022-10-16T13:55:15;18.50;54.75
65396;HTU21D;52004;45.136;39.010;2022-10-16T13:57:41;18.44;54.79
65396;HTU21D;52004;45.136;39.010;2022-10-16T14:00:19;18.39;54.84
65396;HTU21D;52004;45.136;39.010;2022-10-16T14:02:45;18.32;54.85
65396;HTU21D;52004;45.136;39.010;2022-10-16T14:05:17;18.28;54.84
65396;HTU21D;52004;45.136;39.010;2022-10-16T14:07:43;18.25;54.80
65396;HTU21D;52004;45.136;39.010;2022-10-16T14:10:22;18.20;54.89
65396;HTU21D;52004;45.136;39.010;2022-10-16T14:13:02;18.13;54.94
65396;HTU21D;52004;45.136;39.010;2022-10-16T14:15:29;18.11;54.96
65396;HTU21D;52004;45.136;39.010;2022-10-16T14:17:55;18.05;54.97
65396;HTU21D;52004;45.136;39.010;2022-10-16T14:20:24;17.99;55.03
65396;HTU21D;52004;45.136;39.010;2022-10-16T14:23:36;17.92;55.10
65396;HTU21D;52004;45.136;39.010;2022-10-16T14:25:37;17.87;55.11
65396;HTU21D;52004;45.136;39.010;2022-10-16T14:30:35;17.81;55.15
65396;HTU21D;52004;45.136;39.010;2022-10-16T14:33:03;17.78;55.16
65396;HTU21D;52004;45.136;39.010;2022-10-16T14:37:56;17.68;55.20
65396;HTU21D;52004;45.136;39.010;2022-10-16T14:40:24;17.65;55.22
65396;HTU21D;52004;45.136;39.010;2022-10-16T14:42:50;17.64;55.23
65396;HTU21D;52004;45.136;39.010;2022-10-16T14:45:23;17.61;55.26
65396;HTU21D;52004;45.136;39.010;2022-10-16T14:47:53;17.55;55.33
65396;HTU21D;52004;45.136;39.010;2022-10-16T14:50:20;17.51;55.39
65396;HTU21D;52004;45.136;39.010;2022-10-16T14:52:46;17.48;55.36
65396;HTU21D;52004;45.136;39.010;2022-10-16T14:55:12;17.45;55.47
65396;HTU21D;52004;45.136;39.010;2022-10-16T14:57:38;17.43;55.47
65396;HTU21D;52004;45.136;39.010;2022-10-16T15:02:36;17.35;55.55
65396;HTU21D;52004;45.136;39.010;2022-10-16T15:07:57;17.31;55.55
65396;HTU21D;52004;45.136;39.010;2022-10-16T15:10:24;17.26;55.59
65396;HTU21D;52004;45.136;39.010;2022-10-16T15:12:51;17.24;55.58
65396;HTU21D;52004;45.136;39.010;2022-10-16T15:17:49;17.17;55.65
65396;HTU21D;52004;45.136;39.010;2022-10-16T15:20:18;17.14;55.70
65396;HTU21D;52004;45.136;39.010;2022-10-16T15:22:44;17.09;55.71
65396;HTU21D;52004;45.136;39.010;2022-10-16T15:27:57;17.05;55.73
65396;HTU21D;52004;45.136;39.010;2022-10-16T15:30:23;17.03;55.73
65396;HTU21D;52004;45.136;39.010;2022-10-16T15:32:49;17.00;55.71
65396;HTU21D;52004;45.136;39.010;2022-10-16T15:35:15;16.95;55.75
65396;HTU21D;52004;45.136;39.010;2022-10-16T15:37:40;16.93;55.78
65396;HTU21D;52004;45.136;39.010;2022-10-16T15:40:07;16.92;55.76
65396;HTU21D;52004;45.136;39.010;2022-10-16T15:42:33;16.88;55.76
65396;HTU21D;52004;45.136;39.010;2022-10-16T15:44:59;16.87;55.81
65396;HTU21D;52004;45.136;39.010;2022-10-16T15:47:25;16.82;55.84
65396;HTU21D;52004;45.136;39.010;2022-10-16T15:49:51;16.80;55.87
65396;HTU21D;52004;45.136;39.010;2022-10-16T15:52:17;16.78;55.84
65396;HTU21D;52004;45.136;39.010;2022-10-16T15:54:43;16.77;55.89
65396;HTU21D;52004;45.136;39.010;2022-10-16T15:57:09;16.75;55.88
65396;HTU21D;52004;45.136;39.010;2022-10-16T15:59:35;16.72;55.93
65396;HTU21D;52004;45.136;39.010;2022-10-16T16:02:01;16.67;55.94
65396;HTU21D;52004;45.136;39.010;2022-10-16T16:04:29;16.65;55.94
65396;HTU21D;52004;45.136;39.010;2022-10-16T16:06:55;16.63;55.97
65396;HTU21D;52004;45.136;39.010;2022-10-16T16:09:21;16.60;55.99
65396;HTU21D;52004;45.136;39.010;2022-10-16T16:11:47;16.57;56.03
65396;HTU21D;52004;45.136;39.010;2022-10-16T16:14:13;16.56;56.04
65396;HTU21D;52004;45.136;39.010;2022-10-16T16:16:39;16.54;56.08
65396;HTU21D;52004;45.136;39.010;2022-10-16T16:19:05;16.50;56.10
65396;HTU21D;52004;45.136;39.010;2022-10-16T16:21:31;16.48;56.05
65396;HTU21D;52004;45.136;39.010;2022-10-16T16:23:58;16.47;56.09
65396;HTU21D;52004;45.136;39.010;2022-10-16T16:28:52;16.44;56.13
65396;HTU21D;52004;45.136;39.010;2022-10-16T16:31:18;16.42;56.16
65396;HTU21D;52004;45.136;39.010;2022-10-16T16:33:44;16.40;56.18
65396;HTU21D;52004;45.136;39.010;2022-10-16T16:36:10;16.37;56.23
65396;HTU21D;52004;45.136;39.010;2022-10-16T16:38:36;16.36;56.23
65396;HTU21D;52004;45.136;39.010;2022-10-16T16:41:12;16.35;56.29
65396;HTU21D;52004;45.136;39.010;2022-10-16T16:43:39;16.34;56.31
65396;HTU21D;52004;45.136;39.010;2022-10-16T16:46:05;16.32;56.26
65396;HTU21D;52004;45.136;39.010;2022-10-16T16:48:31;16.32;56.32
65396;HTU21D;52004;45.136;39.010;2022-10-16T16:51:02;16.32;56.36
65396;HTU21D;52004;45.136;39.010;2022-10-16T16:53:28;16.29;56.39
65396;HTU21D;52004;45.136;39.010;2022-10-16T16:55:54;16.29;56.39
65396;HTU21D;52004;45.136;39.010;2022-10-16T16:58:19;16.28;56.44
65396;HTU21D;52004;45.136;39.010;2022-10-16T17:00:46;16.26;56.49
65396;HTU21D;52004;45.136;39.010;2022-10-16T17:03:12;16.24;56.52